sensor_id;sensor_type;location;lat;lon;timestamp;pressure;altitude;pressure_sealevel;temperature
68127;BMP180;54931;52.098;21.006;2023-06-19T00:01:19;100199.80;;;12.20
68127;BMP180;54931;52.098;21.006;2023-06-19T00:03:47;100194.80;;;12.18
68127;BMP180;54931;52.098;21.006;2023-06-19T00:06:16;100195.40;;;12.10
68127;BMP180;54931;52.098;21.006;2023-06-19T00:08:44;100200.80;;;12.10
68127;BMP180;54931;52.098;21.006;2023-06-19T00:11:12;100203.40;;;12.10
68127;BMP180;54931;52.098;21.006;2023-06-19T00:13:40;100208.80;;;12.00
68127;BMP180;54931;52.098;21.006;2023-06-19T00:16:07;100208.60;;;12.00
68127;BMP180;54931;52.098;21.006;2023-06-19T00:18:35;100211.00;;;12.00
68127;BMP180;54931;52.098;21.006;2023-06-19T00:21:08;100213.40;;;11.90
68127;BMP180;54931;52.098;21.006;2023-06-19T00:23:35;100216.00;;;11.90
68127;BMP180;54931;52.098;21.006;2023-06-19T00:26:04;100210.80;;;11.90
68127;BMP180;54931;52.098;21.006;2023-06-19T00:28:32;100216.40;;;11.90
68127;BMP180;54931;52.098;21.006;2023-06-19T00:31:00;100212.20;;;11.90
68127;BMP180;54931;52.098;21.006;2023-06-19T00:33:28;100212.00;;;11.90
68127;BMP180;54931;52.098;21.006;2023-06-19T00:35:59;100212.60;;;11.90
68127;BMP180;54931;52.098;21.006;2023-06-19T00:38:28;100210.80;;;11.90
68127;BMP180;54931;52.098;21.006;2023-06-19T00:40:57;100206.60;;;11.90
68127;BMP180;54931;52.098;21.006;2023-06-19T00:43:25;100209.60;;;11.90
68127;BMP180;54931;52.098;21.006;2023-06-19T00:45:53;100206.40;;;11.80
68127;BMP180;54931;52.098;21.006;2023-06-19T00:48:32;100209.20;;;11.80
68127;BMP180;54931;52.098;21.006;2023-06-19T00:51:02;100206.20;;;11.80
68127;BMP180;54931;52.098;21.006;2023-06-19T00:53:32;100205.60;;;11.80
68127;BMP180;54931;52.098;21.006;2023-06-19T00:56:03;100210.60;;;11.70
68127;BMP180;54931;52.098;21.006;2023-06-19T00:58:31;100212.40;;;11.70
68127;BMP180;54931;52.098;21.006;2023-06-19T01:00:59;100212.60;;;11.70
68127;BMP180;54931;52.098;21.006;2023-06-19T01:03:26;100210.80;;;11.70
68127;BMP180;54931;52.098;21.006;2023-06-19T01:05:57;100213.80;;;11.70
68127;BMP180;54931;52.098;21.006;2023-06-19T01:11:29;100209.00;;;11.60
68127;BMP180;54931;52.098;21.006;2023-06-19T01:17:29;100207.40;;;11.58
68127;BMP180;54931;52.098;21.006;2023-06-19T01:19:59;100207.40;;;11.50
68127;BMP180;54931;52.098;21.006;2023-06-19T01:22:31;100213.80;;;11.50
68127;BMP180;54931;52.098;21.006;2023-06-19T01:24:59;100212.00;;;11.50
68127;BMP180;54931;52.098;21.006;2023-06-19T01:27:28;100210.80;;;11.40
68127;BMP180;54931;52.098;21.006;2023-06-19T01:30:01;100207.00;;;11.40
68127;BMP180;54931;52.098;21.006;2023-06-19T01:33:00;100207.60;;;11.40
68127;BMP180;54931;52.098;21.006;2023-06-19T01:35:35;100207.80;;;11.40
68127;BMP180;54931;52.098;21.006;2023-06-19T01:38:05;100204.20;;;11.30
68127;BMP180;54931;52.098;21.006;2023-06-19T01:40:34;100207.40;;;11.30
68127;BMP180;54931;52.098;21.006;2023-06-19T01:43:04;100210.20;;;11.30
68127;BMP180;54931;52.098;21.006;2023-06-19T01:45:33;100211.60;;;11.30
68127;BMP180;54931;52.098;21.006;2023-06-19T01:48:02;100209.60;;;11.30
68127;BMP180;54931;52.098;21.006;2023-06-19T01:50:30;100209.20;;;11.30
68127;BMP180;54931;52.098;21.006;2023-06-19T01:52:58;100207.60;;;11.24
68127;BMP180;54931;52.098;21.006;2023-06-19T01:55:26;100211.40;;;11.22
68127;BMP180;54931;52.098;21.006;2023-06-19T01:57:53;100204.00;;;11.28
68127;BMP180;54931;52.098;21.006;2023-06-19T02:00:21;100202.20;;;11.24
68127;BMP180;54931;52.098;21.006;2023-06-19T02:02:50;100204.60;;;11.20
68127;BMP180;54931;52.098;21.006;2023-06-19T02:05:17;100203.20;;;11.20
68127;BMP180;54931;52.098;21.006;2023-06-19T02:07:46;100202.60;;;11.20
68127;BMP180;54931;52.098;21.006;2023-06-19T02:10:13;100200.60;;;11.20
68127;BMP180;54931;52.098;21.006;2023-06-19T02:12:41;100203.20;;;11.20
68127;BMP180;54931;52.098;21.006;2023-06-19T02:15:10;100200.80;;;11.20
68127;BMP180;54931;52.098;21.006;2023-06-19T02:17:38;100206.00;;;11.20
68127;BMP180;54931;52.098;21.006;2023-06-19T02:20:06;100206.00;;;11.20
68127;BMP180;54931;52.098;21.006;2023-06-19T02:22:38;100205.00;;;11.20
68127;BMP180;54931;52.098;21.006;2023-06-19T02:25:07;100204.40;;;11.14
68127;BMP180;54931;52.098;21.006;2023-06-19T02:27:36;100203.00;;;11.10
68127;BMP180;54931;52.098;21.006;2023-06-19T02:30:08;100201.20;;;11.10
68127;BMP180;54931;52.098;21.006;2023-06-19T02:32:35;100200.60;;;11.10
68127;BMP180;54931;52.098;21.006;2023-06-19T02:35:09;100205.20;;;11.10
68127;BMP180;54931;52.098;21.006;2023-06-19T02:37:38;100201.00;;;11.10
68127;BMP180;54931;52.098;21.006;2023-06-19T02:40:07;100203.20;;;11.10
68127;BMP180;54931;52.098;21.006;2023-06-19T02:42:36;100203.40;;;11.10
68127;BMP180;54931;52.098;21.006;2023-06-19T02:45:05;100207.60;;;11.10
68127;BMP180;54931;52.098;21.006;2023-06-19T02:47:33;100207.00;;;11.10
68127;BMP180;54931;52.098;21.006;2023-06-19T02:50:03;100210.00;;;11.10
68127;BMP180;54931;52.098;21.006;2023-06-19T02:52:31;100208.20;;;11.10
68127;BMP180;54931;52.098;21.006;2023-06-19T02:54:59;100206.00;;;11.10
68127;BMP180;54931;52.098;21.006;2023-06-19T02:57:27;100211.00;;;11.10
68127;BMP180;54931;52.098;21.006;2023-06-19T02:59:55;100212.40;;;11.10
68127;BMP180;54931;52.098;21.006;2023-06-19T03:02:23;100215.60;;;11.10
68127;BMP180;54931;52.098;21.006;2023-06-19T03:04:52;100221.80;;;11.10
68127;BMP180;54931;52.098;21.006;2023-06-19T03:07:20;100224.20;;;11.10
68127;BMP180;54931;52.098;21.006;2023-06-19T03:09:48;100224.40;;;11.10
68127;BMP180;54931;52.098;21.006;2023-06-19T03:12:15;100229.60;;;11.10
68127;BMP180;54931;52.098;21.006;2023-06-19T03:14:43;100229.60;;;11.20
68127;BMP180;54931;52.098;21.006;2023-06-19T03:17:12;100232.20;;;11.20
68127;BMP180;54931;52.098;21.006;2023-06-19T03:19:40;100231.20;;;11.30
68127;BMP180;54931;52.098;21.006;2023-06-19T03:22:08;100235.80;;;11.30
68127;BMP180;54931;52.098;21.006;2023-06-19T03:24:36;100232.60;;;11.40
68127;BMP180;54931;52.098;21.006;2023-06-19T03:27:04;100231.00;;;11.50
68127;BMP180;54931;52.098;21.006;2023-06-19T03:29:32;100235.80;;;11.70
68127;BMP180;54931;52.098;21.006;2023-06-19T03:32:00;100235.60;;;11.90
68127;BMP180;54931;52.098;21.006;2023-06-19T03:34:28;100232.80;;;12.12
68127;BMP180;54931;52.098;21.006;2023-06-19T03:36:56;100233.80;;;12.40
68127;BMP180;54931;52.098;21.006;2023-06-19T03:39:26;100230.60;;;12.64
68127;BMP180;54931;52.098;21.006;2023-06-19T03:41:53;100234.60;;;12.86
68127;BMP180;54931;52.098;21.006;2023-06-19T03:44:21;100234.60;;;13.10
68127;BMP180;54931;52.098;21.006;2023-06-19T03:46:51;100237.60;;;13.40
68127;BMP180;54931;52.098;21.006;2023-06-19T03:49:19;100237.40;;;13.70
68127;BMP180;54931;52.098;21.006;2023-06-19T03:51:51;100241.00;;;14.00
68127;BMP180;54931;52.098;21.006;2023-06-19T03:54:19;100236.40;;;14.32
68127;BMP180;54931;52.098;21.006;2023-06-19T03:56:46;100237.20;;;14.66
68127;BMP180;54931;52.098;21.006;2023-06-19T03:59:14;100234.60;;;14.90
68127;BMP180;54931;52.098;21.006;2023-06-19T04:01:42;100237.20;;;15.10
68127;BMP180;54931;52.098;21.006;2023-06-19T04:04:10;100232.40;;;15.36
68127;BMP180;54931;52.098;21.006;2023-06-19T04:06:38;100233.40;;;15.60
68127;BMP180;54931;52.098;21.006;2023-06-19T04:09:06;100232.80;;;15.88
68127;BMP180;54931;52.098;21.006;2023-06-19T04:11:34;100235.40;;;16.10
68127;BMP180;54931;52.098;21.006;2023-06-19T04:14:01;100233.00;;;16.36
68127;BMP180;54931;52.098;21.006;2023-06-19T04:16:29;100234.00;;;16.62
68127;BMP180;54931;52.098;21.006;2023-06-19T04:18:57;100237.60;;;16.90
68127;BMP180;54931;52.098;21.006;2023-06-19T04:21:26;100237.80;;;17.10
68127;BMP180;54931;52.098;21.006;2023-06-19T04:23:54;100238.20;;;17.20
68127;BMP180;54931;52.098;21.006;2023-06-19T04:26:22;100235.60;;;17.38
68127;BMP180;54931;52.098;21.006;2023-06-19T04:28:50;100237.20;;;17.50
68127;BMP180;54931;52.098;21.006;2023-06-19T04:31:18;100241.00;;;17.70
68127;BMP180;54931;52.098;21.006;2023-06-19T04:33:46;100238.20;;;17.80
68127;BMP180;54931;52.098;21.006;2023-06-19T04:36:14;100236.40;;;17.80
68127;BMP180;54931;52.098;21.006;2023-06-19T04:38:45;100238.60;;;17.90
68127;BMP180;54931;52.098;21.006;2023-06-19T04:41:12;100234.60;;;18.00
68127;BMP180;54931;52.098;21.006;2023-06-19T04:43:41;100235.60;;;18.02
68127;BMP180;54931;52.098;21.006;2023-06-19T04:46:09;100240.60;;;18.10
68127;BMP180;54931;52.098;21.006;2023-06-19T04:48:37;100238.00;;;18.30
68127;BMP180;54931;52.098;21.006;2023-06-19T04:51:04;100235.20;;;18.50
68127;BMP180;54931;52.098;21.006;2023-06-19T04:53:32;100239.60;;;18.72
68127;BMP180;54931;52.098;21.006;2023-06-19T04:56:00;100237.00;;;19.10
68127;BMP180;54931;52.098;21.006;2023-06-19T04:58:28;100240.60;;;19.40
68127;BMP180;54931;52.098;21.006;2023-06-19T05:00:56;100240.20;;;19.60
68127;BMP180;54931;52.098;21.006;2023-06-19T05:03:24;100244.60;;;19.90
68127;BMP180;54931;52.098;21.006;2023-06-19T05:05:52;100243.80;;;20.00
68127;BMP180;54931;52.098;21.006;2023-06-19T05:08:20;100245.20;;;20.30
68127;BMP180;54931;52.098;21.006;2023-06-19T05:10:48;100239.20;;;20.70
68127;BMP180;54931;52.098;21.006;2023-06-19T05:13:16;100241.00;;;20.90
68127;BMP180;54931;52.098;21.006;2023-06-19T05:15:46;100236.80;;;21.10
68127;BMP180;54931;52.098;21.006;2023-06-19T05:18:14;100242.60;;;21.40
68127;BMP180;54931;52.098;21.006;2023-06-19T05:20:42;100239.40;;;21.68
68127;BMP180;54931;52.098;21.006;2023-06-19T05:23:10;100241.00;;;21.92
68127;BMP180;54931;52.098;21.006;2023-06-19T05:25:38;100243.80;;;22.20
68127;BMP180;54931;52.098;21.006;2023-06-19T05:28:06;100245.00;;;22.30
68127;BMP180;54931;52.098;21.006;2023-06-19T05:30:34;100250.60;;;22.40
68127;BMP180;54931;52.098;21.006;2023-06-19T05:33:03;100259.40;;;22.60
68127;BMP180;54931;52.098;21.006;2023-06-19T05:35:30;100261.60;;;22.70
68127;BMP180;54931;52.098;21.006;2023-06-19T05:37:59;100266.20;;;22.84
68127;BMP180;54931;52.098;21.006;2023-06-19T05:40:27;100271.60;;;22.90
68127;BMP180;54931;52.098;21.006;2023-06-19T05:42:56;100275.80;;;23.10
68127;BMP180;54931;52.098;21.006;2023-06-19T05:45:24;100278.60;;;23.20
68127;BMP180;54931;52.098;21.006;2023-06-19T05:47:51;100276.20;;;23.30
68127;BMP180;54931;52.098;21.006;2023-06-19T05:50:19;100278.20;;;23.40
68127;BMP180;54931;52.098;21.006;2023-06-19T05:52:48;100281.60;;;23.40
68127;BMP180;54931;52.098;21.006;2023-06-19T05:55:15;100287.00;;;23.50
68127;BMP180;54931;52.098;21.006;2023-06-19T05:57:44;100288.40;;;23.50
68127;BMP180;54931;52.098;21.006;2023-06-19T06:00:12;100291.20;;;23.70
68127;BMP180;54931;52.098;21.006;2023-06-19T06:02:43;100295.20;;;23.90
68127;BMP180;54931;52.098;21.006;2023-06-19T06:05:11;100298.40;;;24.00
68127;BMP180;54931;52.098;21.006;2023-06-19T06:07:40;100296.60;;;23.94
68127;BMP180;54931;52.098;21.006;2023-06-19T06:10:09;100302.80;;;24.10
68127;BMP180;54931;52.098;21.006;2023-06-19T06:12:37;100305.20;;;24.30
68127;BMP180;54931;52.098;21.006;2023-06-19T06:15:06;100304.00;;;24.30
68127;BMP180;54931;52.098;21.006;2023-06-19T06:17:35;100309.80;;;24.32
68127;BMP180;54931;52.098;21.006;2023-06-19T06:20:03;100312.80;;;24.50
68127;BMP180;54931;52.098;21.006;2023-06-19T06:22:41;100313.80;;;24.80
68127;BMP180;54931;52.098;21.006;2023-06-19T06:25:10;100317.80;;;24.88
68127;BMP180;54931;52.098;21.006;2023-06-19T06:27:38;100320.40;;;24.90
68127;BMP180;54931;52.098;21.006;2023-06-19T06:30:06;100326.00;;;25.00
68127;BMP180;54931;52.098;21.006;2023-06-19T06:32:35;100333.40;;;25.10
68127;BMP180;54931;52.098;21.006;2023-06-19T06:35:03;100332.00;;;25.20
68127;BMP180;54931;52.098;21.006;2023-06-19T06:37:31;100334.00;;;25.08
68127;BMP180;54931;52.098;21.006;2023-06-19T06:39:59;100333.40;;;25.00
68127;BMP180;54931;52.098;21.006;2023-06-19T06:42:27;100332.40;;;25.00
68127;BMP180;54931;52.098;21.006;2023-06-19T06:44:55;100334.60;;;24.98
68127;BMP180;54931;52.098;21.006;2023-06-19T06:47:23;100339.40;;;25.00
68127;BMP180;54931;52.098;21.006;2023-06-19T06:49:51;100342.40;;;25.14
68127;BMP180;54931;52.098;21.006;2023-06-19T06:52:19;100340.80;;;25.40
68127;BMP180;54931;52.098;21.006;2023-06-19T06:54:47;100344.40;;;25.80
68127;BMP180;54931;52.098;21.006;2023-06-19T06:57:15;100342.00;;;26.04
68127;BMP180;54931;52.098;21.006;2023-06-19T06:59:42;100337.00;;;26.10
68127;BMP180;54931;52.098;21.006;2023-06-19T07:02:10;100337.20;;;26.34
68127;BMP180;54931;52.098;21.006;2023-06-19T07:04:38;100333.20;;;26.40
68127;BMP180;54931;52.098;21.006;2023-06-19T07:07:06;100331.00;;;26.24
68127;BMP180;54931;52.098;21.006;2023-06-19T07:09:36;100327.60;;;26.32
68127;BMP180;54931;52.098;21.006;2023-06-19T07:12:04;100328.40;;;26.40
68127;BMP180;54931;52.098;21.006;2023-06-19T07:14:34;100327.40;;;26.50
68127;BMP180;54931;52.098;21.006;2023-06-19T07:17:02;100325.40;;;26.40
68127;BMP180;54931;52.098;21.006;2023-06-19T07:19:30;100324.40;;;26.60
68127;BMP180;54931;52.098;21.006;2023-06-19T07:21:58;100325.00;;;26.80
68127;BMP180;54931;52.098;21.006;2023-06-19T07:24:26;100320.80;;;27.00
68127;BMP180;54931;52.098;21.006;2023-06-19T07:26:54;100323.00;;;26.90
68127;BMP180;54931;52.098;21.006;2023-06-19T07:29:24;100321.80;;;27.00
68127;BMP180;54931;52.098;21.006;2023-06-19T07:31:53;100323.60;;;27.00
68127;BMP180;54931;52.098;21.006;2023-06-19T07:34:21;100322.20;;;27.00
68127;BMP180;54931;52.098;21.006;2023-06-19T07:36:49;100324.00;;;26.82
68127;BMP180;54931;52.098;21.006;2023-06-19T07:39:17;100323.80;;;27.00
68127;BMP180;54931;52.098;21.006;2023-06-19T07:41:46;100322.60;;;26.62
68127;BMP180;54931;52.098;21.006;2023-06-19T07:44:14;100326.00;;;26.40
68127;BMP180;54931;52.098;21.006;2023-06-19T07:46:45;100325.80;;;26.40
68127;BMP180;54931;52.098;21.006;2023-06-19T07:49:13;100331.60;;;26.20
68127;BMP180;54931;52.098;21.006;2023-06-19T07:51:40;100335.60;;;26.20
68127;BMP180;54931;52.098;21.006;2023-06-19T07:54:08;100333.40;;;26.40
68127;BMP180;54931;52.098;21.006;2023-06-19T07:56:36;100336.00;;;26.66
68127;BMP180;54931;52.098;21.006;2023-06-19T07:59:05;100334.20;;;26.80
68127;BMP180;54931;52.098;21.006;2023-06-19T08:01:32;100335.40;;;26.80
68127;BMP180;54931;52.098;21.006;2023-06-19T08:04:00;100337.40;;;26.70
68127;BMP180;54931;52.098;21.006;2023-06-19T08:06:28;100336.60;;;26.70
68127;BMP180;54931;52.098;21.006;2023-06-19T08:08:56;100336.80;;;26.80
68127;BMP180;54931;52.098;21.006;2023-06-19T08:11:24;100336.40;;;26.80
68127;BMP180;54931;52.098;21.006;2023-06-19T08:13:52;100340.20;;;26.70
68127;BMP180;54931;52.098;21.006;2023-06-19T08:16:19;100337.40;;;26.70
68127;BMP180;54931;52.098;21.006;2023-06-19T08:18:47;100336.20;;;26.80
68127;BMP180;54931;52.098;21.006;2023-06-19T08:21:15;100345.00;;;26.90
68127;BMP180;54931;52.098;21.006;2023-06-19T08:23:43;100340.20;;;26.90
68127;BMP180;54931;52.098;21.006;2023-06-19T08:26:11;100338.80;;;27.16
68127;BMP180;54931;52.098;21.006;2023-06-19T08:28:39;100338.00;;;27.38
68127;BMP180;54931;52.098;21.006;2023-06-19T08:31:08;100337.60;;;27.40
68127;BMP180;54931;52.098;21.006;2023-06-19T08:33:36;100339.40;;;27.40
68127;BMP180;54931;52.098;21.006;2023-06-19T08:36:04;100341.00;;;27.40
68127;BMP180;54931;52.098;21.006;2023-06-19T08:38:32;100347.20;;;27.50
68127;BMP180;54931;52.098;21.006;2023-06-19T08:41:00;100333.80;;;27.70
68127;BMP180;54931;52.098;21.006;2023-06-19T08:43:29;100335.60;;;27.58
68127;BMP180;54931;52.098;21.006;2023-06-19T08:46:17;100340.20;;;27.60
68127;BMP180;54931;52.098;21.006;2023-06-19T08:48:46;100342.00;;;27.86
68127;BMP180;54931;52.098;21.006;2023-06-19T08:51:15;100341.20;;;28.10
68127;BMP180;54931;52.098;21.006;2023-06-19T08:53:56;100336.80;;;28.20
68127;BMP180;54931;52.098;21.006;2023-06-19T08:56:24;100342.40;;;28.26
68127;BMP180;54931;52.098;21.006;2023-06-19T08:58:53;100341.40;;;28.40
68127;BMP180;54931;52.098;21.006;2023-06-19T09:01:21;100346.20;;;28.50
68127;BMP180;54931;52.098;21.006;2023-06-19T09:03:49;100344.60;;;28.50
68127;BMP180;54931;52.098;21.006;2023-06-19T09:06:20;100345.20;;;28.70
68127;BMP180;54931;52.098;21.006;2023-06-19T09:08:58;100343.00;;;28.64
68127;BMP180;54931;52.098;21.006;2023-06-19T09:11:27;100334.60;;;28.60
68127;BMP180;54931;52.098;21.006;2023-06-19T09:13:57;100339.40;;;28.46
68127;BMP180;54931;52.098;21.006;2023-06-19T09:16:40;100343.20;;;28.60
68127;BMP180;54931;52.098;21.006;2023-06-19T09:19:08;100340.00;;;28.74
68127;BMP180;54931;52.098;21.006;2023-06-19T09:21:37;100346.60;;;28.90
68127;BMP180;54931;52.098;21.006;2023-06-19T09:24:08;100348.60;;;28.90
68127;BMP180;54931;52.098;21.006;2023-06-19T09:26:36;100345.00;;;28.90
68127;BMP180;54931;52.098;21.006;2023-06-19T09:29:14;100344.00;;;29.00
68127;BMP180;54931;52.098;21.006;2023-06-19T09:31:46;100342.80;;;28.98
68127;BMP180;54931;52.098;21.006;2023-06-19T09:34:14;100340.20;;;28.72
68127;BMP180;54931;52.098;21.006;2023-06-19T09:36:44;100342.60;;;28.90
68127;BMP180;54931;52.098;21.006;2023-06-19T09:39:14;100343.80;;;29.20
68127;BMP180;54931;52.098;21.006;2023-06-19T09:41:46;100343.00;;;28.90
68127;BMP180;54931;52.098;21.006;2023-06-19T09:44:17;100342.40;;;28.88
68127;BMP180;54931;52.098;21.006;2023-06-19T09:46:52;100341.20;;;29.10
68127;BMP180;54931;52.098;21.006;2023-06-19T09:49:28;100341.60;;;29.10
68127;BMP180;54931;52.098;21.006;2023-06-19T09:51:59;100341.60;;;29.24
68127;BMP180;54931;52.098;21.006;2023-06-19T09:54:30;100344.80;;;28.50
68127;BMP180;54931;52.098;21.006;2023-06-19T09:57:00;100347.00;;;28.50
68127;BMP180;54931;52.098;21.006;2023-06-19T09:59:31;100352.60;;;28.80
68127;BMP180;54931;52.098;21.006;2023-06-19T10:01:59;100342.80;;;28.78
68127;BMP180;54931;52.098;21.006;2023-06-19T10:04:27;100342.00;;;28.90
68127;BMP180;54931;52.098;21.006;2023-06-19T10:06:56;100343.60;;;29.20
68127;BMP180;54931;52.098;21.006;2023-06-19T10:09:32;100340.40;;;29.48
68127;BMP180;54931;52.098;21.006;2023-06-19T10:12:12;100335.00;;;29.60
68127;BMP180;54931;52.098;21.006;2023-06-19T10:14:49;100331.60;;;29.60
68127;BMP180;54931;52.098;21.006;2023-06-19T10:17:17;100334.20;;;29.36
68127;BMP180;54931;52.098;21.006;2023-06-19T10:19:51;100337.00;;;28.72
68127;BMP180;54931;52.098;21.006;2023-06-19T10:22:20;100329.00;;;28.10
68127;BMP180;54931;52.098;21.006;2023-06-19T10:24:51;100329.00;;;27.64
68127;BMP180;54931;52.098;21.006;2023-06-19T10:27:24;100332.00;;;27.16
68127;BMP180;54931;52.098;21.006;2023-06-19T10:29:54;100322.00;;;27.00
68127;BMP180;54931;52.098;21.006;2023-06-19T10:32:22;100330.40;;;27.24
68127;BMP180;54931;52.098;21.006;2023-06-19T10:34:50;100327.60;;;27.62
68127;BMP180;54931;52.098;21.006;2023-06-19T10:37:17;100329.80;;;27.96
68127;BMP180;54931;52.098;21.006;2023-06-19T10:39:45;100322.60;;;28.20
68127;BMP180;54931;52.098;21.006;2023-06-19T10:42:13;100321.40;;;28.34
68127;BMP180;54931;52.098;21.006;2023-06-19T10:44:41;100321.40;;;28.60
68127;BMP180;54931;52.098;21.006;2023-06-19T10:47:09;100319.80;;;28.70
68127;BMP180;54931;52.098;21.006;2023-06-19T10:49:37;100316.60;;;28.80
68127;BMP180;54931;52.098;21.006;2023-06-19T10:52:07;100318.20;;;28.60
68127;BMP180;54931;52.098;21.006;2023-06-19T10:54:35;100319.00;;;28.74
68127;BMP180;54931;52.098;21.006;2023-06-19T10:57:07;100318.40;;;28.80
68127;BMP180;54931;52.098;21.006;2023-06-19T10:59:34;100317.40;;;28.70
68127;BMP180;54931;52.098;21.006;2023-06-19T11:02:03;100318.60;;;28.80
68127;BMP180;54931;52.098;21.006;2023-06-19T11:04:37;100318.60;;;28.90
68127;BMP180;54931;52.098;21.006;2023-06-19T11:07:07;100318.40;;;28.94
68127;BMP180;54931;52.098;21.006;2023-06-19T11:09:35;100314.40;;;28.80
68127;BMP180;54931;52.098;21.006;2023-06-19T11:12:04;100317.40;;;28.78
68127;BMP180;54931;52.098;21.006;2023-06-19T11:14:36;100313.80;;;28.76
68127;BMP180;54931;52.098;21.006;2023-06-19T11:17:07;100318.00;;;28.60
68127;BMP180;54931;52.098;21.006;2023-06-19T11:19:35;100316.00;;;28.58
68127;BMP180;54931;52.098;21.006;2023-06-19T11:22:06;100313.80;;;28.50
68127;BMP180;54931;52.098;21.006;2023-06-19T11:24:35;100317.60;;;28.32
68127;BMP180;54931;52.098;21.006;2023-06-19T11:27:03;100313.40;;;28.00
68127;BMP180;54931;52.098;21.006;2023-06-19T11:29:35;100308.20;;;27.80
68127;BMP180;54931;52.098;21.006;2023-06-19T11:32:12;100306.80;;;27.80
68127;BMP180;54931;52.098;21.006;2023-06-19T11:34:40;100295.40;;;27.60
68127;BMP180;54931;52.098;21.006;2023-06-19T11:37:16;100298.40;;;27.40
68127;BMP180;54931;52.098;21.006;2023-06-19T11:39:46;100292.80;;;27.20
68127;BMP180;54931;52.098;21.006;2023-06-19T11:42:15;100298.80;;;27.20
68127;BMP180;54931;52.098;21.006;2023-06-19T11:44:55;100297.00;;;27.40
68127;BMP180;54931;52.098;21.006;2023-06-19T11:47:24;100298.20;;;27.50
68127;BMP180;54931;52.098;21.006;2023-06-19T11:49:52;100296.40;;;27.52
68127;BMP180;54931;52.098;21.006;2023-06-19T11:52:19;100298.40;;;27.74
68127;BMP180;54931;52.098;21.006;2023-06-19T11:54:47;100295.60;;;27.92
68127;BMP180;54931;52.098;21.006;2023-06-19T11:57:15;100296.60;;;28.08
68127;BMP180;54931;52.098;21.006;2023-06-19T11:59:43;100289.00;;;28.20
68127;BMP180;54931;52.098;21.006;2023-06-19T12:02:13;100283.00;;;28.10
68127;BMP180;54931;52.098;21.006;2023-06-19T12:04:41;100286.60;;;28.10
68127;BMP180;54931;52.098;21.006;2023-06-19T12:07:09;100287.80;;;27.98
68127;BMP180;54931;52.098;21.006;2023-06-19T12:09:37;100295.20;;;27.80
68127;BMP180;54931;52.098;21.006;2023-06-19T12:12:07;100292.00;;;27.70
68127;BMP180;54931;52.098;21.006;2023-06-19T12:14:35;100290.20;;;27.68
68127;BMP180;54931;52.098;21.006;2023-06-19T12:17:03;100287.40;;;27.70
68127;BMP180;54931;52.098;21.006;2023-06-19T12:19:31;100285.60;;;27.90
68127;BMP180;54931;52.098;21.006;2023-06-19T12:21:59;100286.40;;;27.80
68127;BMP180;54931;52.098;21.006;2023-06-19T12:24:27;100285.20;;;27.80
68127;BMP180;54931;52.098;21.006;2023-06-19T12:26:55;100283.40;;;27.70
68127;BMP180;54931;52.098;21.006;2023-06-19T12:29:24;100282.00;;;27.90
68127;BMP180;54931;52.098;21.006;2023-06-19T12:31:51;100277.20;;;27.90
68127;BMP180;54931;52.098;21.006;2023-06-19T12:34:19;100272.20;;;28.00
68127;BMP180;54931;52.098;21.006;2023-06-19T12:36:47;100276.20;;;28.04
68127;BMP180;54931;52.098;21.006;2023-06-19T12:39:15;100275.00;;;27.98
68127;BMP180;54931;52.098;21.006;2023-06-19T12:41:44;100274.00;;;27.90
68127;BMP180;54931;52.098;21.006;2023-06-19T12:44:12;100273.80;;;28.00
68127;BMP180;54931;52.098;21.006;2023-06-19T12:46:41;100272.80;;;28.10
68127;BMP180;54931;52.098;21.006;2023-06-19T12:49:09;100270.00;;;28.00
68127;BMP180;54931;52.098;21.006;2023-06-19T12:51:36;100268.20;;;27.92
68127;BMP180;54931;52.098;21.006;2023-06-19T12:54:04;100268.00;;;28.00
68127;BMP180;54931;52.098;21.006;2023-06-19T12:56:33;100264.20;;;28.00
68127;BMP180;54931;52.098;21.006;2023-06-19T12:59:01;100264.00;;;27.80
68127;BMP180;54931;52.098;21.006;2023-06-19T13:01:29;100263.60;;;27.80
68127;BMP180;54931;52.098;21.006;2023-06-19T13:03:57;100265.20;;;27.80
68127;BMP180;54931;52.098;21.006;2023-06-19T13:06:25;100257.40;;;27.80
68127;BMP180;54931;52.098;21.006;2023-06-19T13:08:54;100253.80;;;27.80
68127;BMP180;54931;52.098;21.006;2023-06-19T13:11:22;100250.20;;;27.80
68127;BMP180;54931;52.098;21.006;2023-06-19T13:13:51;100254.60;;;27.80
68127;BMP180;54931;52.098;21.006;2023-06-19T13:16:19;100250.60;;;27.70
68127;BMP180;54931;52.098;21.006;2023-06-19T13:18:47;100251.80;;;27.76
68127;BMP180;54931;52.098;21.006;2023-06-19T13:21:15;100242.40;;;27.60
68127;BMP180;54931;52.098;21.006;2023-06-19T13:23:43;100243.60;;;27.70
68127;BMP180;54931;52.098;21.006;2023-06-19T13:26:11;100245.20;;;27.82
68127;BMP180;54931;52.098;21.006;2023-06-19T13:28:40;100243.20;;;27.90
68127;BMP180;54931;52.098;21.006;2023-06-19T13:31:08;100239.20;;;28.00
68127;BMP180;54931;52.098;21.006;2023-06-19T13:33:36;100234.80;;;28.10
68127;BMP180;54931;52.098;21.006;2023-06-19T13:36:05;100233.80;;;28.16
68127;BMP180;54931;52.098;21.006;2023-06-19T13:38:33;100232.00;;;28.00
68127;BMP180;54931;52.098;21.006;2023-06-19T13:41:01;100230.60;;;28.00
68127;BMP180;54931;52.098;21.006;2023-06-19T13:43:28;100228.40;;;27.90
68127;BMP180;54931;52.098;21.006;2023-06-19T13:45:57;100231.80;;;27.90
68127;BMP180;54931;52.098;21.006;2023-06-19T13:48:24;100232.60;;;27.90
68127;BMP180;54931;52.098;21.006;2023-06-19T13:50:52;100229.40;;;27.80
68127;BMP180;54931;52.098;21.006;2023-06-19T13:53:20;100220.60;;;27.76
68127;BMP180;54931;52.098;21.006;2023-06-19T13:55:49;100218.00;;;27.70
68127;BMP180;54931;52.098;21.006;2023-06-19T13:58:17;100215.40;;;27.62
68127;BMP180;54931;52.098;21.006;2023-06-19T14:00:45;100213.20;;;27.60